Time;durP1;ratioP1;P1;durP2;ratioP2;P2;SDS_P1;SDS_P2;PMS_P1;PMS_P2;Temp;Humidity;BMP_temperature;BMP_pressure;BME280_temperature;BME280_humidity;BME280_pressure;Samples;Min_cycle;Max_cycle;Signal;HPM_P1;HPM_P2
2022/03/20 00:02:04;;;;;;;1.15;1.02;;;;;;;8.63;100.00;101530.94;7394869;19;20022;-81
2022/03/20 00:04:30;;;;;;;1.38;1.27;;;;;;;8.61;100.00;101529.78;7389113;19;20094;-82
2022/03/20 00:06:56;;;;;;;1.58;0.65;;;;;;;8.65;100.00;101522.97;7389285;19;20457;-81
2022/03/20 00:09:22;;;;;;;1.33;0.93;;;;;;;8.65;100.00;101520.19;7391335;19;20035;-82
2022/03/20 00:11:47;;;;;;;0.30;0.30;;;;;;;8.67;100.00;101523.34;7393606;19;20027;-81
2022/03/20 00:14:13;;;;;;;1.25;0.50;;;;;;;8.63;100.00;101517.06;7388463;19;20010;-81
2022/03/20 00:16:39;;;;;;;2.33;1.08;;;;;;;8.70;100.00;101508.63;7389456;19;20035;-81
2022/03/20 00:19:05;;;;;;;0.57;0.57;;;;;;;8.80;100.00;101521.53;7388119;19;20488;-82
2022/03/20 00:21:32;;;;;;;0.52;0.52;;;;;;;8.84;100.00;101500.03;7388990;19;20360;-81
2022/03/20 00:23:57;;;;;;;0.68;0.68;;;;;;;8.86;100.00;101508.72;7388817;19;20026;-82
2022/03/20 00:26:23;;;;;;;0.63;0.63;;;;;;;8.89;100.00;101488.44;7389840;19;20011;-82
2022/03/20 00:28:50;;;;;;;1.77;0.45;;;;;;;8.81;100.00;101489.00;7391236;19;20051;-82
2022/03/20 00:31:16;;;;;;;0.57;0.35;;;;;;;8.78;100.00;101495.38;7392527;19;20007;-81
2022/03/20 00:33:41;;;;;;;0.95;0.95;;;;;;;8.79;100.00;101497.72;7393647;19;20007;-82
2022/03/20 00:36:07;;;;;;;3.65;1.30;;;;;;;8.79;100.00;101500.50;7400377;19;20078;-81
2022/03/20 00:38:32;;;;;;;5.10;1.25;;;;;;;8.72;100.00;101492.31;7401337;19;20055;-81
2022/03/20 00:40:58;;;;;;;0.57;0.57;;;;;;;8.64;100.00;101513.06;7401679;19;20042;-82
2022/03/20 00:43:24;;;;;;;0.98;0.88;;;;;;;8.63;100.00;101500.41;7398631;19;20440;-82
2022/03/20 00:45:49;;;;;;;9.30;0.80;;;;;;;8.64;100.00;101493.63;7394364;19;20022;-81
2022/03/20 00:48:15;;;;;;;2.15;0.88;;;;;;;8.64;100.00;101504.72;7397511;19;20015;-82
2022/03/20 00:50:40;;;;;;;1.25;1.02;;;;;;;8.63;100.00;101514.28;7398958;19;20031;-83
2022/03/20 00:53:06;;;;;;;0.40;0.40;;;;;;;8.57;100.00;101504.09;7395445;19;20438;-83
2022/03/20 00:55:32;;;;;;;0.60;0.60;;;;;;;8.45;100.00;101499.91;7397448;19;20023;-82
2022/03/20 00:57:57;;;;;;;2.90;1.00;;;;;;;8.30;100.00;101495.78;7393385;19;20011;-82
2022/03/20 01:00:23;;;;;;;0.85;0.85;;;;;;;8.22;100.00;101489.53;7393935;19;20007;-83
2022/03/20 01:02:48;;;;;;;7.90;1.58;;;;;;;8.13;100.00;101489.25;7393991;19;20010;-83
2022/03/20 01:05:14;;;;;;;16.00;2.35;;;;;;;8.14;100.00;101488.03;7395957;19;20015;-83
2022/03/20 01:07:41;;;;;;;0.50;0.50;;;;;;;8.16;100.00;101493.19;7395320;19;20046;-82
2022/03/20 01:10:08;;;;;;;7.22;1.35;;;;;;;8.12;100.00;101492.47;7395284;19;20484;-87
2022/03/20 01:12:34;;;;;;;5.10;1.85;;;;;;;8.20;100.00;101478.06;7398686;19;20025;-86
2022/03/20 01:15:01;;;;;;;1.95;1.77;;;;;;;8.29;100.00;101485.88;7400325;19;20017;-86
2022/03/20 01:17:27;;;;;;;0.65;0.65;;;;;;;8.26;100.00;101479.19;7398085;19;20094;-86
2022/03/20 01:19:52;;;;;;;4.53;1.05;;;;;;;8.21;100.00;101478.81;7397892;19;20018;-86
2022/03/20 01:22:18;;;;;;;1.25;0.82;;;;;;;8.14;100.00;101484.50;7403691;19;20011;-87
2022/03/20 01:24:43;;;;;;;6.18;0.60;;;;;;;8.03;100.00;101483.88;7397852;19;20066;-85
2022/03/20 01:27:09;;;;;;;2.40;1.85;;;;;;;7.92;100.00;101474.91;7399118;19;20015;-86
2022/03/20 01:29:35;;;;;;;0.45;0.43;;;;;;;7.82;100.00;101467.53;7396140;19;20011;-86
2022/03/20 01:32:02;;;;;;;4.15;1.15;;;;;;;7.86;100.00;101473.81;7401787;19;20018;-86
2022/03/20 01:34:28;;;;;;;4.30;0.60;;;;;;;7.86;100.00;101468.28;7399630;19;20014;-86
2022/03/20 01:36:54;;;;;;;1.17;0.90;;;;;;;7.85;100.00;101466.69;7395762;19;20027;-87
2022/03/20 01:39:20;;;;;;;0.40;0.40;;;;;;;7.75;100.00;101459.31;7400056;19;20014;-86
2022/03/20 01:41:47;;;;;;;7.28;1.33;;;;;;;7.64;100.00;101451.16;7398538;19;20011;-86
2022/03/20 01:44:13;;;;;;;16.65;1.27;;;;;;;7.46;100.00;101458.91;7399200;19;20015;-88
2022/03/20 01:46:38;;;;;;;0.52;0.52;;;;;;;7.37;100.00;101445.53;7396921;19;20019;-84
2022/03/20 01:49:04;;;;;;;6.47;1.58;;;;;;;7.42;100.00;101453.41;7414818;19;20019;-88
2022/03/20 01:54:14;;;;;;;1.85;1.15;;;;;;;7.58;100.00;101445.25;7410659;19;20014;-87
2022/03/20 01:56:44;;;;;;;21.40;1.50;;;;;;;7.56;100.00;101433.81;7410570;19;20355;-88
2022/03/20 01:59:09;;;;;;;11.88;1.70;;;;;;;7.38;100.00;101438.81;7400722;19;20010;-89
2022/03/20 02:01:35;;;;;;;5.45;2.45;;;;;;;7.25;100.00;101415.63;7399259;19;20022;-88
2022/03/20 02:04:01;;;;;;;3.15;0.38;;;;;;;7.21;100.00;101417.63;7398249;19;20019;-89
2022/03/20 02:06:27;;;;;;;1.35;1.25;;;;;;;7.12;100.00;101405.50;7398474;19;20415;-90
2022/03/20 02:08:56;;;;;;;0.65;0.65;;;;;;;7.06;100.00;101409.91;7398699;19;20022;-88
2022/03/20 02:11:25;;;;;;;3.15;1.67;;;;;;;7.01;100.00;101402.06;7402949;19;20509;-88
2022/03/20 02:13:52;;;;;;;0.85;0.80;;;;;;;6.97;100.00;101391.03;7403220;19;20022;-88
2022/03/20 02:16:18;;;;;;;0.40;0.40;;;;;;;6.96;100.00;101386.69;7396901;19;20018;-87
2022/03/20 02:18:44;;;;;;;4.53;0.70;;;;;;;6.92;100.00;101377.63;7399367;19;20025;-88
2022/03/20 02:21:09;;;;;;;4.93;1.88;;;;;;;6.92;100.00;101372.09;7399745;19;20089;-88
2022/03/20 02:23:36;;;;;;;2.60;0.82;;;;;;;6.91;100.00;101359.44;7394840;19;20037;-85
2022/03/20 02:26:03;;;;;;;3.22;1.33;;;;;;;6.91;100.00;101358.66;7393816;19;20027;-84
2022/03/20 02:28:29;;;;;;;0.70;0.70;;;;;;;6.94;100.00;101360.59;7394055;19;20019;-86
2022/03/20 02:30:55;;;;;;;1.23;1.23;;;;;;;6.99;100.00;101365.69;7396793;19;20702;-84
2022/03/20 02:33:23;;;;;;;4.57;2.60;;;;;;;6.99;100.00;101354.59;7392910;19;20021;-84
2022/03/20 02:35:50;;;;;;;3.50;2.00;;;;;;;7.02;100.00;101360.09;7393294;19;20133;-84
2022/03/20 02:38:18;;;;;;;15.98;0.90;;;;;;;7.03;100.00;101350.59;7395146;19;20074;-85
2022/03/20 02:40:45;;;;;;;23.15;1.60;;;;;;;7.03;100.00;101360.88;7395979;19;20022;-86
2022/03/20 02:43:11;;;;;;;0.75;0.75;;;;;;;7.05;100.00;101358.47;7394063;19;20018;-85
2022/03/20 02:45:38;;;;;;;2.55;1.00;;;;;;;7.04;100.00;101352.16;7394384;19;20018;-85
2022/03/20 02:48:04;;;;;;;5.18;1.08;;;;;;;7.09;100.00;101360.00;7395834;19;20030;-88
2022/03/20 02:50:35;;;;;;;2.40;1.17;;;;;;;7.11;100.00;101354.84;7399697;19;20031;-89
2022/03/20 02:53:03;;;;;;;0.27;0.27;;;;;;;7.11;100.00;101349.28;7399064;19;20018;-89
2022/03/20 02:55:37;;;;;;;2.65;0.93;;;;;;;7.07;100.00;101345.78;7397197;19;20390;-88
2022/03/20 02:58:10;;;;;;;5.07;1.27;;;;;;;7.03;100.00;101350.59;7393905;19;20033;-88
2022/03/20 03:00:37;;;;;;;7.00;1.48;;;;;;;6.91;100.00;101337.28;7397502;19;20007;-89
2022/03/20 03:03:04;;;;;;;2.22;0.75;;;;;;;6.79;100.00;101332.28;7397215;19;20017;-89
2022/03/20 03:05:31;;;;;;;4.75;1.40;;;;;;;6.69;100.00;101324.91;7397243;19;20006;-88
2022/03/20 03:10:56;;;;;;;2.92;1.35;;;;;;;6.89;100.00;101306.44;7398713;19;20400;-88
2022/03/20 03:13:27;;;;;;;6.97;1.10;;;;;;;6.95;100.00;101304.81;7397905;19;20026;-88
2022/03/20 03:15:54;;;;;;;;;;;;;;;7.00;100.00;101295.22;7397598;19;20011;-89
2022/03/20 03:18:20;;;;;;;2.05;0.68;;;;;;;7.03;100.00;101303.50;7393785;19;19915;-89
2022/03/20 03:20:47;;;;;;;1.45;0.77;;;;;;;7.05;100.00;101287.25;7395715;19;20046;-89
2022/03/20 03:23:14;;;;;;;3.08;1.67;;;;;;;7.05;100.00;101292.81;7396683;19;20010;-89
2022/03/20 03:25:40;;;;;;;1.40;1.05;;;;;;;7.08;100.00;101303.03;7396051;19;20015;-88
2022/03/20 03:28:07;;;;;;;1.13;1.05;;;;;;;7.13;100.00;101304.56;7396112;19;20015;-89
2022/03/20 03:30:34;;;;;;;8.45;2.55;;;;;;;7.04;100.00;101302.28;7397833;19;20011;-88
2022/03/20 03:33:00;;;;;;;0.95;0.95;;;;;;;6.98;100.00;101301.19;7395276;19;20030;-88
2022/03/20 03:38:15;;;;;;;0.55;0.55;;;;;;;6.99;100.00;101305.53;7394654;19;20018;-89
2022/03/20 03:40:44;;;;;;;5.68;1.90;;;;;;;7.02;100.00;101304.69;7397654;19;20127;-88
2022/03/20 03:43:10;;;;;;;1.20;1.00;;;;;;;7.11;100.00;101310.50;7392960;19;20015;-90
2022/03/20 03:45:39;;;;;;;2.42;0.73;;;;;;;7.05;100.00;101314.97;7394779;19;20078;-85
2022/03/20 03:48:04;;;;;;;34.70;2.00;;;;;;;6.96;100.00;101317.44;7391408;19;20041;-85
2022/03/20 03:50:30;;;;;;;1.27;0.75;;;;;;;6.90;100.00;101324.66;7393623;19;20504;-88
2022/03/20 03:52:56;;;;;;;4.47;2.10;;;;;;;6.82;100.00;101309.34;7396429;19;20037;-89
2022/03/20 03:55:22;;;;;;;1.65;1.55;;;;;;;6.73;100.00;101303.50;7396441;19;20456;-88
2022/03/20 03:57:49;;;;;;;1.92;1.20;;;;;;;6.64;100.00;101312.31;7393498;19;20035;-88
2022/03/20 04:00:17;;;;;;;9.80;1.55;;;;;;;6.59;100.00;101303.66;7395453;19;20026;-88
2022/03/20 04:02:46;;;;;;;9.43;1.52;;;;;;;6.49;100.00;101297.06;7393548;19;20019;-88
2022/03/20 04:05:15;;;;;;;6.13;1.70;;;;;;;6.35;100.00;101308.28;7395854;19;20022;-88
2022/03/20 04:07:41;;;;;;;9.32;1.48;;;;;;;6.21;100.00;101288.28;7394312;19;20019;-88
2022/03/20 04:10:07;;;;;;;0.80;0.80;;;;;;;6.06;100.00;101293.94;7401804;19;20010;-88
2022/03/20 04:12:37;;;;;;;0.73;0.73;;;;;;;6.00;100.00;101295.59;7402794;19;20010;-88
2022/03/20 04:15:06;;;;;;;1.35;1.13;;;;;;;5.91;100.00;101292.50;7403794;19;20507;-88
2022/03/20 04:17:32;;;;;;;4.28;1.30;;;;;;;5.88;100.00;101282.28;7401062;19;20066;-88
2022/03/20 04:19:58;;;;;;;1.55;0.65;;;;;;;5.94;100.00;101286.16;7400369;19;20017;-88
2022/03/20 04:22:28;;;;;;;1.17;1.13;;;;;;;5.92;100.00;101283.03;7401811;19;20014;-86
2022/03/20 04:24:54;;;;;;;1.25;1.15;;;;;;;5.90;100.00;101279.09;7400243;19;20043;-86
2022/03/20 04:27:21;;;;;;;1.20;1.15;;;;;;;5.88;100.00;101271.22;7398031;19;20021;-86
2022/03/20 04:29:48;;;;;;;2.50;2.30;;;;;;;5.76;100.00;101273.66;7402370;19;20010;-86
2022/03/20 04:32:15;;;;;;;12.82;1.38;;;;;;;5.78;100.00;101272.03;7404763;19;20018;-87
2022/03/20 04:34:41;;;;;;;1.95;1.40;;;;;;;5.77;100.00;101270.50;7400020;19;20015;-86
2022/03/20 04:37:09;;;;;;;1.20;1.15;;;;;;;5.86;100.00;101264.53;7397026;19;20014;-86
2022/03/20 04:39:35;;;;;;;0.90;0.90;;;;;;;5.97;100.00;101268.75;7400540;19;20030;-85
2022/03/20 04:42:02;;;;;;;2.25;1.13;;;;;;;6.13;100.00;101275.72;7403635;19;20038;-86
2022/03/20 04:44:29;;;;;;;2.05;1.35;;;;;;;6.17;100.00;101282.00;7399653;19;20050;-86
2022/03/20 04:46:55;;;;;;;6.55;1.88;;;;;;;6.14;100.00;101267.00;7397877;19;20453;-85
2022/03/20 05:00:20;;;;;;;1.98;1.17;;;;;;;5.90;100.00;101257.78;7398313;19;20019;-86
2022/03/20 05:02:47;;;;;;;3.70;1.20;;;;;;;5.90;100.00;101252.25;7397577;19;20476;-86
2022/03/20 05:05:12;;;;;;;0.57;0.55;;;;;;;6.03;100.00;101263.56;7398892;19;20018;-86
2022/03/20 05:07:38;;;;;;;4.60;2.33;;;;;;;6.07;100.00;101256.00;7397743;19;20033;-86
2022/03/20 05:15:33;;;;;;;5.30;2.28;;;;;;;5.97;100.00;101241.13;7398352;19;20010;-86
2022/03/20 05:17:59;;;;;;;4.93;1.73;;;;;;;5.98;100.00;101236.34;7397392;19;20463;-87
2022/03/20 05:20:26;;;;;;;7.97;1.13;;;;;;;5.99;100.00;101232.41;7397838;19;20023;-85
2022/03/20 05:22:52;;;;;;;3.58;1.23;;;;;;;5.99;100.00;101227.66;7398409;19;20011;-87
2022/03/20 05:25:18;;;;;;;5.10;1.98;;;;;;;6.00;100.00;101229.22;7399575;19;20050;-87
2022/03/20 05:27:44;;;;;;;2.55;0.88;;;;;;;5.99;100.00;101224.91;7397209;19;20010;-87
2022/03/20 05:30:10;;;;;;;6.60;1.63;;;;;;;6.08;100.00;101225.19;7399223;19;20027;-87
2022/03/20 05:32:38;;;;;;;7.63;3.15;;;;;;;6.21;100.00;101213.59;7403381;19;20106;-87
2022/03/20 05:35:05;;;;;;;4.43;2.25;;;;;;;6.24;100.00;101210.00;7396894;19;20010;-87
2022/03/20 05:37:32;;;;;;;5.95;2.22;;;;;;;6.22;100.00;101218.72;7396479;19;20011;-85
2022/03/20 05:39:58;;;;;;;2.83;2.05;;;;;;;6.21;100.00;101222.69;7395426;19;20014;-85
2022/03/20 05:42:23;;;;;;;3.25;1.42;;;;;;;6.26;100.00;101219.44;7396335;19;20025;-85
2022/03/20 05:44:50;;;;;;;13.73;1.77;;;;;;;6.35;100.00;101221.72;7395230;19;20010;-85
2022/03/20 05:47:16;;;;;;;2.22;1.40;;;;;;;6.33;100.00;101227.66;7393634;19;20007;-85
2022/03/20 05:49:42;;;;;;;4.00;1.73;;;;;;;6.29;100.00;101228.91;7398073;19;20014;-84
2022/03/20 05:52:07;;;;;;;1.95;1.10;;;;;;;6.31;100.00;101219.00;7400770;19;20021;-86
2022/03/20 05:54:34;;;;;;;0.90;0.85;;;;;;;6.36;100.00;101228.84;7396511;19;20074;-86
2022/03/20 05:59:44;;;;;;;6.13;2.47;;;;;;;6.56;100.00;101233.31;7394516;19;20363;-84
2022/03/20 06:02:09;;;;;;;3.22;1.98;;;;;;;6.53;100.00;101238.91;7402074;19;20038;-87
2022/03/20 06:04:35;;;;;;;2.38;1.20;;;;;;;6.47;100.00;101248.84;7398273;19;20014;-93
2022/03/20 06:07:01;;;;;;;1.95;1.17;;;;;;;6.38;100.00;101245.81;7398076;19;20022;-94
2022/03/20 06:09:27;;;;;;;2.30;1.02;;;;;;;6.27;100.00;101247.91;7398015;19;20019;-92
2022/03/20 06:11:54;;;;;;;1.80;1.35;;;;;;;6.26;100.00;101246.34;7402685;19;20018;-92
2022/03/20 06:14:19;;;;;;;0.40;0.40;;;;;;;6.17;100.00;101251.56;7398997;19;20029;-95
2022/03/20 06:16:48;;;;;;;3.17;0.85;;;;;;;6.16;100.00;101250.00;7397316;19;20015;-94
2022/03/20 06:19:15;;;;;;;12.55;2.33;;;;;;;6.16;100.00;101252.75;7398278;19;20014;-93
2022/03/20 06:21:42;;;;;;;1.75;1.45;;;;;;;6.27;100.00;101242.38;7396941;19;20006;-93
2022/03/20 06:24:08;;;;;;;1.10;1.00;;;;;;;6.29;100.00;101248.28;7397858;19;20018;-94
2022/03/20 06:26:34;;;;;;;0.68;0.68;;;;;;;6.24;100.00;101251.50;7396467;19;20014;-96
2022/03/20 06:29:01;;;;;;;1.30;1.02;;;;;;;6.16;100.00;101242.50;7397836;19;20014;-94
2022/03/20 06:31:27;;;;;;;6.03;1.35;;;;;;;6.06;100.00;101248.94;7401098;19;20011;-93
2022/03/20 06:33:54;;;;;;;10.05;1.25;;;;;;;6.08;100.00;101247.31;7393818;19;20014;-89
2022/03/20 06:36:19;;;;;;;0.50;0.50;;;;;;;6.08;100.00;101246.53;7394164;19;20018;-89
2022/03/20 06:38:45;;;;;;;2.55;1.00;;;;;;;6.06;100.00;101243.41;7398998;19;20358;-89
2022/03/20 06:41:10;;;;;;;1.00;0.93;;;;;;;6.07;100.00;101244.94;7398151;19;20098;-89
2022/03/20 06:43:37;;;;;;;7.90;2.00;;;;;;;6.02;100.00;101246.19;7397203;19;20015;-90
2022/03/20 06:46:04;;;;;;;7.13;2.25;;;;;;;5.93;100.00;101245.88;7396636;19;20024;-91
2022/03/20 06:48:30;;;;;;;8.77;0.98;;;;;;;5.93;100.00;101247.88;7397474;19;20046;-88
2022/03/20 06:50:56;;;;;;;3.47;1.17;;;;;;;5.91;100.00;101248.25;7394179;19;20552;-88
2022/03/20 06:53:21;;;;;;;1.20;0.50;;;;;;;5.95;100.00;101256.53;7397612;19;20330;-88
2022/03/20 06:55:47;;;;;;;3.13;1.00;;;;;;;6.04;100.00;101262.38;7397211;19;20074;-87
2022/03/20 06:58:17;;;;;;;0.75;0.75;;;;;;;6.08;100.00;101261.16;7398464;19;20018;-89
2022/03/20 07:00:43;;;;;;;2.58;0.73;;;;;;;6.11;100.00;101263.06;7389537;19;20045;-88
2022/03/20 07:03:09;;;;;;;4.97;1.52;;;;;;;6.13;100.00;101260.69;7390332;19;20497;-89
2022/03/20 07:05:35;;;;;;;1.55;1.13;;;;;;;6.08;100.00;101274.97;7392234;19;20018;-88
2022/03/20 07:08:03;;;;;;;3.38;0.68;;;;;;;6.07;100.00;101272.59;7391655;19;20570;-88
2022/03/20 07:10:28;;;;;;;2.42;1.20;;;;;;;6.09;100.00;101275.75;7394389;19;20026;-88
2022/03/20 07:13:48;;;;;;;2.83;1.85;;;;;;;6.14;100.00;101272.53;7390949;19;20011;-87
2022/03/20 07:15:42;;;;;;;4.90;1.15;;;;;;;6.30;100.00;101274.75;7391638;19;20306;-88
2022/03/20 07:18:09;;;;;;;1.65;1.55;;;;;;;6.50;100.00;101275.69;7387928;19;20014;-89
2022/03/20 07:20:37;;;;;;;1.50;1.20;;;;;;;6.66;100.00;101281.44;7391483;19;20381;-89
2022/03/20 07:23:03;;;;;;;9.43;1.52;;;;;;;6.72;100.00;101280.56;7388566;19;20025;-89
2022/03/20 07:30:57;;;;;;;4.95;1.60;;;;;;;6.83;100.00;101280.44;7388200;19;20051;-89
2022/03/20 07:33:24;;;;;;;6.22;1.20;;;;;;;6.99;100.00;101288.94;7394831;19;20015;-89
2022/03/20 07:35:53;;;;;;;0.30;0.30;;;;;;;7.16;100.00;101287.91;7392666;19;20011;-93
2022/03/20 07:38:19;;;;;;;2.30;1.17;;;;;;;7.17;100.00;101283.91;7395049;19;20018;-92
2022/03/20 07:40:44;;;;;;;1.35;1.25;;;;;;;7.18;100.00;101279.16;7398054;19;20371;-92
2022/03/20 07:43:10;;;;;;;2.95;0.95;;;;;;;7.27;100.00;101274.69;7395475;19;20035;-91
2022/03/20 07:45:35;;;;;;;3.05;0.85;;;;;;;7.22;100.00;101277.91;7393573;19;20391;-90
2022/03/20 07:48:02;;;;;;;2.85;0.90;;;;;;;7.19;100.00;101267.66;7390203;19;20007;-90
2022/03/20 07:50:28;;;;;;;3.53;1.35;;;;;;;7.25;100.00;101274.31;7397379;19;20011;-93
2022/03/20 07:52:56;;;;;;;2.00;1.70;;;;;;;7.24;100.00;101275.50;7395685;19;20021;-95
2022/03/20 07:55:27;;;;;;;1.20;0.95;;;;;;;7.36;100.00;101274.91;7399294;19;20018;-92
2022/03/20 07:57:53;;;;;;;5.20;2.50;;;;;;;7.44;100.00;101270.06;7392457;19;20081;-94
2022/03/20 08:00:19;;;;;;;1.90;1.80;;;;;;;7.42;100.00;101273.25;7394701;19;20089;-93
2022/03/20 08:02:46;;;;;;;1.52;1.50;;;;;;;7.47;100.00;101264.44;7394275;19;20027;-88
2022/03/20 08:05:11;;;;;;;1.25;1.00;;;;;;;7.62;100.00;101268.56;7392712;19;20035;-95
2022/03/20 08:07:38;;;;;;;2.75;0.70;;;;;;;7.69;100.00;101261.34;7392390;19;20359;-93
2022/03/20 08:10:08;;;;;;;1.95;1.23;;;;;;;7.77;100.00;101255.28;7396824;19;20465;-94
2022/03/20 08:12:35;;;;;;;4.47;0.93;;;;;;;7.85;100.00;101247.59;7395677;19;20011;-94
2022/03/20 08:15:02;;;;;;;5.70;1.20;;;;;;;7.93;100.00;101237.94;7402921;19;20031;-96
2022/03/20 08:17:29;;;;;;;1.45;1.35;;;;;;;8.03;100.00;101246.09;7397737;19;20021;-96
2022/03/20 08:19:57;;;;;;;1.00;0.95;;;;;;;8.11;100.00;101241.16;7400612;19;20107;-95
2022/03/20 08:22:23;;;;;;;2.05;1.30;;;;;;;8.11;100.00;101235.63;7401300;19;20046;-96
2022/03/20 08:24:48;;;;;;;1.63;1.52;;;;;;;8.17;100.00;101222.81;7395886;19;20022;-95
2022/03/20 08:27:14;;;;;;;6.13;1.50;;;;;;;8.24;100.00;101222.69;7395518;19;20011;-95
2022/03/20 08:29:40;;;;;;;0.85;0.80;;;;;;;8.33;100.00;101214.63;7394966;19;20030;-95
2022/03/20 08:32:07;;;;;;;7.45;2.58;;;;;;;8.44;100.00;101215.19;7400387;19;20016;-95
2022/03/20 08:34:35;;;;;;;0.82;0.82;;;;;;;8.48;100.00;101204.78;7394260;19;20453;-96
2022/03/20 08:37:00;;;;;;;1.25;1.15;;;;;;;8.58;100.00;101209.31;7393456;19;20018;-95
2022/03/20 08:39:26;;;;;;;8.30;1.75;;;;;;;8.73;100.00;101207.81;7394258;19;20019;-94
2022/03/20 08:41:52;;;;;;;2.97;1.67;;;;;;;8.78;100.00;101207.31;7399592;19;20019;-96
2022/03/20 08:44:18;;;;;;;1.38;0.68;;;;;;;8.87;100.00;101210.28;7394184;19;20022;-94
2022/03/20 08:46:44;;;;;;;1.52;1.05;;;;;;;9.02;100.00;101205.97;7398092;19;20010;-91
2022/03/20 08:49:09;;;;;;;1.85;1.60;;;;;;;9.14;100.00;101207.25;7394727;19;20361;-92
2022/03/20 08:51:38;;;;;;;4.32;1.88;;;;;;;9.18;100.00;101208.75;7397925;19;20035;-89
2022/03/20 08:54:04;;;;;;;15.02;2.30;;;;;;;9.27;100.00;101205.38;7393710;19;20495;-91
2022/03/20 08:56:29;;;;;;;0.73;0.73;;;;;;;9.32;100.00;101195.72;7402801;19;20011;-90
2022/03/20 08:58:56;;;;;;;3.05;1.02;;;;;;;9.41;100.00;101188.34;7405941;19;20132;-92
2022/03/20 09:01:22;;;;;;;11.82;1.75;;;;;;;9.48;100.00;101190.16;7402000;19;20014;-90
2022/03/20 09:03:50;;;;;;;1.38;0.93;;;;;;;9.52;100.00;101193.66;7401087;19;20022;-89
2022/03/20 09:06:20;;;;;;;2.80;1.27;;;;;;;9.57;100.00;101195.91;7399854;19;20031;-91
2022/03/20 09:08:46;;;;;;;8.95;1.15;;;;;;;9.68;100.00;101191.63;7402273;19;20023;-92
2022/03/20 09:11:12;;;;;;;2.65;1.85;;;;;;;9.80;100.00;101192.91;7398982;19;20409;-90
2022/03/20 09:13:38;;;;;;;0.60;0.60;;;;;;;9.82;100.00;101185.69;7402277;19;20011;-91
2022/03/20 09:19:03;;;;;;;2.38;2.08;;;;;;;9.90;100.00;101187.06;7404744;19;20078;-92
2022/03/20 09:21:34;;;;;;;1.88;1.08;;;;;;;9.98;100.00;101182.09;7403883;19;20022;-93
2022/03/20 09:24:02;;;;;;;13.05;1.60;;;;;;;10.15;100.00;101180.84;7396886;19;20023;-80
2022/03/20 09:26:28;;;;;;;3.30;1.73;;;;;;;10.23;100.00;101176.63;7390530;19;20039;-81
2022/03/20 09:28:54;;;;;;;1.95;1.35;;;;;;;10.25;100.00;101168.63;7390162;19;20551;-80
2022/03/20 09:31:20;;;;;;;3.03;1.27;;;;;;;10.29;100.00;101169.28;7395367;19;20041;-83
2022/03/20 09:33:47;;;;;;;2.78;1.75;;;;;;;10.34;100.00;101171.53;7395244;19;20018;-82
2022/03/20 09:36:13;;;;;;;11.68;1.38;;;;;;;10.44;100.00;101178.00;7393328;19;20025;-81
2022/03/20 09:38:39;;;;;;;0.70;0.70;;;;;;;10.65;100.00;101180.94;7393903;19;20018;-82
2022/03/20 09:41:07;;;;;;;1.73;1.45;;;;;;;10.70;100.00;101176.06;7390925;19;20018;-82
2022/03/20 09:43:34;;;;;;;1.30;1.02;;;;;;;10.87;100.00;101180.31;7394699;19;20022;-83
2022/03/20 09:46:00;;;;;;;2.05;1.75;;;;;;;11.03;100.00;101177.41;7388136;19;20022;-82
2022/03/20 09:48:27;;;;;;;7.68;3.08;;;;;;;11.11;100.00;101165.56;7387978;19;20022;-81
2022/03/20 09:50:53;;;;;;;2.20;1.63;;;;;;;11.09;100.00;101164.47;7392621;19;20333;-80
2022/03/20 09:53:20;;;;;;;13.05;2.70;;;;;;;11.06;100.00;101159.78;7393182;19;20030;-81
2022/03/20 09:55:46;;;;;;;2.72;2.00;;;;;;;11.09;100.00;101153.31;7394953;19;20646;-81
2022/03/20 09:58:18;;;;;;;7.00;1.73;;;;;;;10.95;100.00;101148.19;7394925;19;20029;-81
2022/03/20 10:00:44;;;;;;;4.72;1.65;;;;;;;11.02;100.00;101142.41;7394037;19;20018;-82
2022/03/20 10:03:22;;;;;;;8.80;2.13;;;;;;;11.19;100.00;101138.25;7396637;19;20021;-82
2022/03/20 10:06:05;;;;;;;1.73;1.63;;;;;;;11.35;100.00;101132.53;7395399;19;20074;-82
2022/03/20 10:08:31;;;;;;;1.98;1.02;;;;;;;11.40;100.00;101129.97;7398024;19;20021;-94
2022/03/20 10:11:13;;;;;;;2.42;1.63;;;;;;;11.39;100.00;101133.22;7405032;19;20058;-82
2022/03/20 10:13:42;;;;;;;5.18;2.35;;;;;;;11.18;100.00;101131.09;7401988;19;20026;-90
2022/03/20 10:16:18;;;;;;;17.63;2.00;;;;;;;11.05;100.00;101127.56;7398205;19;20015;-88
2022/03/20 10:18:44;;;;;;;2.42;1.45;;;;;;;10.98;100.00;101131.34;7401139;19;20424;-89
2022/03/20 10:21:12;;;;;;;9.73;2.58;;;;;;;11.02;100.00;101132.00;7395026;19;20040;-82
2022/03/20 10:23:42;;;;;;;3.58;1.73;;;;;;;11.14;100.00;101127.66;7396453;19;20031;-82
2022/03/20 10:26:13;;;;;;;2.47;1.27;;;;;;;11.10;100.00;101132.56;7395212;19;20024;-82
2022/03/20 10:28:41;;;;;;;3.55;1.85;;;;;;;11.36;100.00;101128.53;7392484;19;20014;-81
2022/03/20 10:31:25;;;;;;;4.03;2.92;;;;;;;11.67;100.00;101123.09;7394846;19;20025;-84
2022/03/20 10:34:02;;;;;;;2.40;1.63;;;;;;;11.71;100.00;101132.91;7396998;19;20029;-81
2022/03/20 10:36:28;;;;;;;3.42;2.10;;;;;;;11.72;100.00;101117.72;7391435;19;20026;-79
2022/03/20 10:38:54;;;;;;;5.85;1.73;;;;;;;11.94;100.00;101124.09;7395083;19;20022;-82
2022/03/20 10:41:38;;;;;;;2.85;1.20;;;;;;;12.10;100.00;101123.91;7403397;19;20073;-82
2022/03/20 10:44:31;;;;;;;7.07;1.88;;;;;;;12.43;100.00;101115.09;7397533;19;20100;-82
2022/03/20 10:47:16;;;;;;;5.43;1.67;;;;;;;12.56;100.00;101116.53;7392398;19;20026;-81
2022/03/20 10:50:06;;;;;;;3.80;1.30;;;;;;;12.59;100.00;101103.69;7393046;19;20022;-82
2022/03/20 10:52:36;;;;;;;6.03;2.00;;;;;;;12.61;100.00;101098.41;7395912;19;20074;-82
2022/03/20 10:55:17;;;;;;;5.40;1.77;;;;;;;12.57;100.00;101104.16;7392063;19;20476;-83
2022/03/20 10:57:43;;;;;;;2.60;1.80;;;;;;;12.54;100.00;101098.72;7391766;19;20350;-84
2022/03/20 11:00:14;;;;;;;2.97;1.95;;;;;;;12.40;100.00;101104.81;7389623;19;20019;-81
2022/03/20 11:02:41;;;;;;;6.75;0.98;;;;;;;12.36;100.00;101101.41;7391863;19;20034;-81
2022/03/20 11:05:08;;;;;;;6.82;2.88;;;;;;;12.70;100.00;101101.25;7390060;19;20080;-81
2022/03/20 11:07:35;;;;;;;11.70;2.50;;;;;;;12.74;100.00;101099.09;7389293;19;20057;-81
2022/03/20 11:10:01;;;;;;;7.72;2.05;;;;;;;12.55;100.00;101091.88;7390251;19;20514;-81
2022/03/20 11:12:32;;;;;;;9.40;2.33;;;;;;;12.51;100.00;101089.22;7390956;19;20030;-81
2022/03/20 11:15:00;;;;;;;2.30;1.60;;;;;;;12.78;100.00;101083.72;7391607;19;20471;-82
2022/03/20 11:17:36;;;;;;;2.40;1.40;;;;;;;12.93;100.00;101069.94;7390400;19;20349;-81
2022/03/20 11:20:03;;;;;;;2.35;2.15;;;;;;;12.65;100.00;101076.69;7390202;19;20025;-81
2022/03/20 11:22:29;;;;;;;2.72;1.30;;;;;;;12.42;100.00;101064.03;7394935;19;20050;-81
2022/03/20 11:24:56;;;;;;;4.15;1.45;;;;;;;12.52;100.00;101067.63;7394521;19;20039;-82
2022/03/20 11:27:34;;;;;;;4.32;2.50;;;;;;;12.58;100.00;101065.81;7394817;19;20007;-79
2022/03/20 11:30:07;;;;;;;5.05;2.60;;;;;;;12.42;100.00;101069.63;7394073;19;20007;-80
2022/03/20 11:32:33;;;;;;;9.65;2.60;;;;;;;12.16;100.00;101063.44;7397553;19;20027;-81
2022/03/20 11:35:00;;;;;;;8.90;2.03;;;;;;;12.04;100.00;101061.50;7397580;19;20034;-80
2022/03/20 11:37:47;;;;;;;4.85;2.72;;;;;;;12.06;100.00;101052.69;7390247;19;20026;-80
2022/03/20 11:40:13;;;;;;;12.20;2.50;;;;;;;11.99;100.00;101052.94;7388777;19;20022;-81
2022/03/20 11:42:40;;;;;;;5.40;2.35;;;;;;;11.84;100.00;101049.91;7391111;19;20089;-77
2022/03/20 11:45:06;;;;;;;4.32;1.48;;;;;;;11.74;100.00;101039.91;7395428;19;20036;-82
2022/03/20 11:47:39;;;;;;;9.10;1.98;;;;;;;11.66;100.00;101046.94;7389150;19;20083;-80
2022/03/20 11:50:09;;;;;;;1.98;1.88;;;;;;;11.67;100.00;101042.19;7390666;19;20029;-81
2022/03/20 11:52:47;;;;;;;5.07;3.17;;;;;;;11.64;100.00;101043.03;7392410;19;20457;-81
2022/03/20 11:55:45;;;;;;;7.82;3.28;;;;;;;11.78;100.00;101037.75;7390450;19;20029;-80
2022/03/20 11:58:16;;;;;;;8.43;3.42;;;;;;;11.82;100.00;101038.41;7386791;19;20014;-80
2022/03/20 12:00:44;;;;;;;12.00;2.83;;;;;;;11.76;100.00;101036.66;7389606;19;20032;-80